createdAt,value
2022-12-18T00:08:42.142Z,-10.1
2022-12-18T00:18:44.164Z,-10.2
2022-12-18T00:28:45.948Z,-10.2
2022-12-18T00:38:47.978Z,-10.3
2022-12-18T00:48:50.363Z,-10.2
2022-12-18T00:58:52.490Z,-10.2
2022-12-18T01:08:55.046Z,-10.5
2022-12-18T01:18:57.562Z,-10.6
2022-12-18T01:28:59.619Z,-10.6
2022-12-18T01:39:01.722Z,-10.7
2022-12-18T01:59:06.134Z,-10.7
2022-12-18T02:29:11.694Z,-10.9
2022-12-18T02:39:14.282Z,-11
2022-12-18T02:49:16.765Z,-11.1
2022-12-18T02:59:19.412Z,-11.1
2022-12-18T03:09:22.045Z,-11.1
2022-12-18T03:19:24.101Z,-11.2
2022-12-18T03:29:26.245Z,-11.4
2022-12-18T03:39:28.132Z,-11.3
2022-12-18T03:49:30.374Z,-11.2
2022-12-18T03:59:32.915Z,-11.3
2022-12-18T04:09:34.886Z,-11.3
2022-12-18T04:19:36.899Z,-11.3
2022-12-18T04:29:38.850Z,-11.4
2022-12-18T04:49:43.117Z,-11.5
2022-12-18T04:59:45.148Z,-11.5
2022-12-18T05:09:47.699Z,-11.7
2022-12-18T05:19:49.610Z,-11.5
2022-12-18T05:29:52.135Z,-11.5
2022-12-18T05:39:54.520Z,-11.4
2022-12-18T05:49:57.031Z,-11.4
2022-12-18T05:59:59.377Z,-11.5
2022-12-18T06:20:03.605Z,-11.5
2022-12-18T06:30:05.685Z,-11.5
2022-12-18T06:40:08.091Z,-11.5
2022-12-18T06:50:09.850Z,-11.5
2022-12-18T07:00:12.114Z,-11.4
2022-12-18T07:10:14.107Z,-11.4
2022-12-18T07:20:16.553Z,-11.3
2022-12-18T07:30:18.560Z,-11.2
2022-12-18T07:40:20.766Z,-11.1
2022-12-18T08:00:25.202Z,-10.9
2022-12-18T08:10:27.016Z,-10.7
2022-12-18T08:30:31.504Z,-10
2022-12-18T08:40:33.874Z,-9.8
2022-12-18T08:50:35.862Z,-9.3
2022-12-18T09:00:37.818Z,-8.9
2022-12-18T09:10:43.241Z,-8.5
2022-12-18T09:20:42.040Z,-8
2022-12-18T09:30:43.971Z,-7.7
2022-12-18T09:40:45.883Z,-7.3
2022-12-18T09:50:48.142Z,-6.7
2022-12-18T10:00:50.459Z,-6.4
2022-12-18T10:10:52.856Z,-6.2
2022-12-18T10:20:54.729Z,-5.8
2022-12-18T10:30:56.791Z,-5.3
2022-12-18T10:40:58.816Z,-4.9
2022-12-18T10:51:10.689Z,-4.5
2022-12-18T11:01:02.419Z,-4.1
2022-12-18T11:11:04.180Z,-3.6
2022-12-18T11:21:06.498Z,-3.2
2022-12-18T11:31:08.305Z,-3
2022-12-18T11:41:10.607Z,-2.7
2022-12-18T11:51:13.078Z,-2.4
2022-12-18T12:01:15.253Z,-2.4
2022-12-18T12:11:16.922Z,-2.2
2022-12-18T12:21:19.021Z,-2
2022-12-18T12:31:20.818Z,-2
2022-12-18T13:01:28.247Z,-1.7
2022-12-18T13:21:32.424Z,-1.6
2022-12-18T13:41:36.893Z,-1.6
2022-12-18T13:51:38.780Z,-1.9
2022-12-18T14:01:41.337Z,-2
2022-12-18T14:11:43.576Z,-2.1
2022-12-18T14:21:45.915Z,-2.1
2022-12-18T14:31:48.314Z,-2.2
2022-12-18T14:41:50.040Z,-2.1
2022-12-18T15:01:54.036Z,-1.8
2022-12-18T15:11:56.023Z,-1.9
2022-12-18T15:22:01.520Z,-1.9
2022-12-18T15:31:59.920Z,-1.9
2022-12-18T15:42:02.177Z,-1.9
2022-12-18T16:02:06.638Z,-1.8
2022-12-18T16:12:08.514Z,-1.9
2022-12-18T16:32:12.993Z,-1.9
2022-12-18T16:42:15.084Z,-2
2022-12-18T16:52:17.060Z,-2
2022-12-18T17:02:20.310Z,-2.1
2022-12-18T17:12:21.039Z,-2.2
2022-12-18T17:22:23.089Z,-2.3
2022-12-18T17:32:25.122Z,-2.3
2022-12-18T17:42:26.930Z,-2.2
2022-12-18T17:52:28.638Z,-2.3
2022-12-18T18:02:31.122Z,-2.2
2022-12-18T18:12:32.734Z,-2.2
2022-12-18T18:22:34.487Z,-2
2022-12-18T18:32:43.035Z,-1.7
2022-12-18T18:52:47.328Z,0.1
2022-12-18T19:02:49.509Z,0.2
2022-12-18T19:12:51.404Z,0.2
2022-12-18T19:22:55.441Z,0.2
2022-12-18T19:32:56.195Z,0.2
2022-12-18T19:42:57.940Z,0
2022-12-18T19:52:59.985Z,0.1
2022-12-18T20:03:10.103Z,0.1
2022-12-18T20:13:04.705Z,0.2
2022-12-18T20:23:07.274Z,0.3
2022-12-18T20:33:09.664Z,0.3
2022-12-18T20:43:16.906Z,0.3
2022-12-18T20:53:13.962Z,0.4
2022-12-18T21:03:16.218Z,0.4
2022-12-18T21:13:17.840Z,0.4
2022-12-18T21:23:19.607Z,0.1
2022-12-18T21:33:21.411Z,0.1
2022-12-18T21:43:23.906Z,0
2022-12-18T21:53:26.284Z,0
2022-12-18T22:03:29.213Z,0
2022-12-18T22:13:30.674Z,0
2022-12-18T22:23:32.816Z,0
2022-12-18T22:33:34.916Z,0
2022-12-18T22:43:37.245Z,0
2022-12-18T22:53:39.056Z,0
2022-12-18T23:03:41.115Z,0
2022-12-18T23:23:45.242Z,0.1
2022-12-18T23:33:47.834Z,0.2
2022-12-18T23:43:50.096Z,0.2
2022-12-18T23:53:52.497Z,0.2
